sensor_id;sensor_type;location;lat;lon;timestamp;temperature;humidity
22006;DHT22;11167;46.988;15.470;2023-07-13T00:00:35;26.50;70.30
22006;DHT22;11167;46.988;15.470;2023-07-13T00:02:37;26.50;70.30
22006;DHT22;11167;46.988;15.470;2023-07-13T00:04:38;26.40;70.20
22006;DHT22;11167;46.988;15.470;2023-07-13T00:06:39;26.40;70.20
22006;DHT22;11167;46.988;15.470;2023-07-13T00:08:40;26.40;70.20
22006;DHT22;11167;46.988;15.470;2023-07-13T00:10:41;26.30;70.10
22006;DHT22;11167;46.988;15.470;2023-07-13T00:12:43;26.30;70.10
22006;DHT22;11167;46.988;15.470;2023-07-13T00:14:45;26.30;70.10
22006;DHT22;11167;46.988;15.470;2023-07-13T00:16:46;26.20;70.90
22006;DHT22;11167;46.988;15.470;2023-07-13T00:18:47;26.20;70.10
22006;DHT22;11167;46.988;15.470;2023-07-13T00:20:48;26.20;70.00
22006;DHT22;11167;46.988;15.470;2023-07-13T00:22:49;26.20;70.10
22006;DHT22;11167;46.988;15.470;2023-07-13T00:24:52;26.10;70.00
22006;DHT22;11167;46.988;15.470;2023-07-13T00:26:54;26.10;70.00
22006;DHT22;11167;46.988;15.470;2023-07-13T00:28:55;26.10;70.00
22006;DHT22;11167;46.988;15.470;2023-07-13T00:30:56;26.10;70.00
22006;DHT22;11167;46.988;15.470;2023-07-13T00:32:57;26.00;70.00
22006;DHT22;11167;46.988;15.470;2023-07-13T00:34:58;26.00;70.00
22006;DHT22;11167;46.988;15.470;2023-07-13T00:37:01;26.00;70.00
22006;DHT22;11167;46.988;15.470;2023-07-13T00:39:02;26.00;70.00
22006;DHT22;11167;46.988;15.470;2023-07-13T00:41:04;25.90;69.90
22006;DHT22;11167;46.988;15.470;2023-07-13T00:43:17;25.90;69.90
22006;DHT22;11167;46.988;15.470;2023-07-13T00:47:24;25.80;69.80
22006;DHT22;11167;46.988;15.470;2023-07-13T00:49:27;25.80;69.90
22006;DHT22;11167;46.988;15.470;2023-07-13T00:51:38;25.80;69.90
22006;DHT22;11167;46.988;15.470;2023-07-13T00:53:36;25.80;70.00
22006;DHT22;11167;46.988;15.470;2023-07-13T00:55:38;25.80;69.90
22006;DHT22;11167;46.988;15.470;2023-07-13T00:57:40;25.70;69.80
22006;DHT22;11167;46.988;15.470;2023-07-13T00:59:45;25.70;69.80
22006;DHT22;11167;46.988;15.470;2023-07-13T01:01:47;25.70;69.80
22006;DHT22;11167;46.988;15.470;2023-07-13T01:03:48;25.60;69.80
22006;DHT22;11167;46.988;15.470;2023-07-13T01:05:49;25.60;69.80
22006;DHT22;11167;46.988;15.470;2023-07-13T01:07:52;25.60;69.80
22006;DHT22;11167;46.988;15.470;2023-07-13T01:09:53;25.60;69.80
22006;DHT22;11167;46.988;15.470;2023-07-13T01:11:54;25.50;69.70
22006;DHT22;11167;46.988;15.470;2023-07-13T01:13:55;25.50;69.80
22006;DHT22;11167;46.988;15.470;2023-07-13T01:15:58;25.50;69.80
22006;DHT22;11167;46.988;15.470;2023-07-13T01:18:02;25.50;69.80
22006;DHT22;11167;46.988;15.470;2023-07-13T01:20:06;25.50;69.80
22006;DHT22;11167;46.988;15.470;2023-07-13T01:22:17;25.40;69.70
22006;DHT22;11167;46.988;15.470;2023-07-13T01:24:19;25.40;69.70
22006;DHT22;11167;46.988;15.470;2023-07-13T01:26:20;25.40;69.70
22006;DHT22;11167;46.988;15.470;2023-07-13T01:28:22;25.40;69.70
22006;DHT22;11167;46.988;15.470;2023-07-13T01:30:24;25.30;70.50
22006;DHT22;11167;46.988;15.470;2023-07-13T01:32:25;25.30;69.70
22006;DHT22;11167;46.988;15.470;2023-07-13T01:34:27;25.30;69.70
22006;DHT22;11167;46.988;15.470;2023-07-13T01:36:28;25.30;69.70
22006;DHT22;11167;46.988;15.470;2023-07-13T01:38:29;25.20;69.60
22006;DHT22;11167;46.988;15.470;2023-07-13T01:40:31;25.20;69.60
22006;DHT22;11167;46.988;15.470;2023-07-13T01:42:32;25.20;69.70
22006;DHT22;11167;46.988;15.470;2023-07-13T01:44:33;25.20;69.70
22006;DHT22;11167;46.988;15.470;2023-07-13T01:46:34;25.20;69.70
22006;DHT22;11167;46.988;15.470;2023-07-13T01:48:35;25.10;69.70
22006;DHT22;11167;46.988;15.470;2023-07-13T01:50:37;25.10;69.70
22006;DHT22;11167;46.988;15.470;2023-07-13T01:52:38;25.10;69.70
22006;DHT22;11167;46.988;15.470;2023-07-13T01:54:39;25.10;69.70
22006;DHT22;11167;46.988;15.470;2023-07-13T01:56:40;25.10;69.80
22006;DHT22;11167;46.988;15.470;2023-07-13T01:58:42;25.00;69.70
22006;DHT22;11167;46.988;15.470;2023-07-13T02:00:44;25.00;69.70
22006;DHT22;11167;46.988;15.470;2023-07-13T02:02:45;25.00;69.70
22006;DHT22;11167;46.988;15.470;2023-07-13T02:04:47;25.00;69.80
22006;DHT22;11167;46.988;15.470;2023-07-13T02:06:48;25.00;69.70
22006;DHT22;11167;46.988;15.470;2023-07-13T02:08:49;24.90;69.70
22006;DHT22;11167;46.988;15.470;2023-07-13T02:10:50;24.90;69.70
22006;DHT22;11167;46.988;15.470;2023-07-13T02:12:51;24.90;69.70
22006;DHT22;11167;46.988;15.470;2023-07-13T02:14:52;24.90;69.70
22006;DHT22;11167;46.988;15.470;2023-07-13T02:16:53;24.80;69.70
22006;DHT22;11167;46.988;15.470;2023-07-13T02:18:54;24.80;69.70
22006;DHT22;11167;46.988;15.470;2023-07-13T02:20:56;24.80;69.70
22006;DHT22;11167;46.988;15.470;2023-07-13T02:22:57;24.80;69.70
22006;DHT22;11167;46.988;15.470;2023-07-13T02:24:58;24.80;69.70
22006;DHT22;11167;46.988;15.470;2023-07-13T02:27:00;24.80;69.80
22006;DHT22;11167;46.988;15.470;2023-07-13T02:29:01;24.70;69.70
22006;DHT22;11167;46.988;15.470;2023-07-13T02:31:11;24.70;69.70
22006;DHT22;11167;46.988;15.470;2023-07-13T02:33:12;24.70;69.70
22006;DHT22;11167;46.988;15.470;2023-07-13T02:35:14;24.70;69.70
22006;DHT22;11167;46.988;15.470;2023-07-13T02:37:15;24.60;69.70
22006;DHT22;11167;46.988;15.470;2023-07-13T02:39:16;24.60;69.70
22006;DHT22;11167;46.988;15.470;2023-07-13T02:41:18;24.60;69.70
22006;DHT22;11167;46.988;15.470;2023-07-13T02:43:19;24.60;69.70
22006;DHT22;11167;46.988;15.470;2023-07-13T02:45:20;24.60;69.80
22006;DHT22;11167;46.988;15.470;2023-07-13T02:47:21;24.60;69.80
22006;DHT22;11167;46.988;15.470;2023-07-13T02:49:22;24.50;69.70
22006;DHT22;11167;46.988;15.470;2023-07-13T02:51:23;24.50;69.80
22006;DHT22;11167;46.988;15.470;2023-07-13T02:53:24;24.50;69.70
22006;DHT22;11167;46.988;15.470;2023-07-13T02:55:25;24.50;69.80
22006;DHT22;11167;46.988;15.470;2023-07-13T02:57:26;24.50;69.80
22006;DHT22;11167;46.988;15.470;2023-07-13T02:59:28;24.40;69.70
22006;DHT22;11167;46.988;15.470;2023-07-13T03:01:29;24.40;69.70
22006;DHT22;11167;46.988;15.470;2023-07-13T03:03:30;24.40;69.70
22006;DHT22;11167;46.988;15.470;2023-07-13T03:05:32;24.40;69.80
22006;DHT22;11167;46.988;15.470;2023-07-13T03:07:33;24.40;69.90
22006;DHT22;11167;46.988;15.470;2023-07-13T03:09:35;24.40;69.90
22006;DHT22;11167;46.988;15.470;2023-07-13T03:11:36;24.40;69.90
22006;DHT22;11167;46.988;15.470;2023-07-13T03:13:38;24.40;69.90
22006;DHT22;11167;46.988;15.470;2023-07-13T03:15:39;24.30;69.90
22006;DHT22;11167;46.988;15.470;2023-07-13T03:17:40;24.30;69.90
22006;DHT22;11167;46.988;15.470;2023-07-13T03:19:41;24.30;70.70
22006;DHT22;11167;46.988;15.470;2023-07-13T03:21:42;24.30;69.90
22006;DHT22;11167;46.988;15.470;2023-07-13T03:23:43;24.30;70.00
22006;DHT22;11167;46.988;15.470;2023-07-13T03:25:44;24.20;69.90
22006;DHT22;11167;46.988;15.470;2023-07-13T03:27:45;24.20;69.90
22006;DHT22;11167;46.988;15.470;2023-07-13T03:29:46;24.20;70.00
22006;DHT22;11167;46.988;15.470;2023-07-13T03:31:47;24.20;69.90
22006;DHT22;11167;46.988;15.470;2023-07-13T03:33:48;24.20;70.00
22006;DHT22;11167;46.988;15.470;2023-07-13T03:35:51;24.20;69.90
22006;DHT22;11167;46.988;15.470;2023-07-13T03:37:53;24.20;70.00
22006;DHT22;11167;46.988;15.470;2023-07-13T03:39:54;24.10;70.00
22006;DHT22;11167;46.988;15.470;2023-07-13T03:41:55;24.10;70.00
22006;DHT22;11167;46.988;15.470;2023-07-13T03:43:57;24.10;70.00
22006;DHT22;11167;46.988;15.470;2023-07-13T03:45:58;24.10;70.00
22006;DHT22;11167;46.988;15.470;2023-07-13T03:47:59;24.10;70.00
22006;DHT22;11167;46.988;15.470;2023-07-13T03:50:00;24.10;70.10
22006;DHT22;11167;46.988;15.470;2023-07-13T03:52:01;24.00;70.00
22006;DHT22;11167;46.988;15.470;2023-07-13T03:54:03;24.00;70.10
22006;DHT22;11167;46.988;15.470;2023-07-13T03:56:04;24.00;70.10
22006;DHT22;11167;46.988;15.470;2023-07-13T03:58:23;24.00;70.10
22006;DHT22;11167;46.988;15.470;2023-07-13T04:00:25;24.00;70.10
22006;DHT22;11167;46.988;15.470;2023-07-13T04:02:45;24.00;70.10
22006;DHT22;11167;46.988;15.470;2023-07-13T04:04:48;23.80;70.00
22006;DHT22;11167;46.988;15.470;2023-07-13T04:06:50;23.90;70.10
22006;DHT22;11167;46.988;15.470;2023-07-13T04:08:55;23.90;70.10
22006;DHT22;11167;46.988;15.470;2023-07-13T04:10:58;23.90;70.20
22006;DHT22;11167;46.988;15.470;2023-07-13T04:13:00;23.90;70.30
22006;DHT22;11167;46.988;15.470;2023-07-13T04:15:01;23.90;70.20
22006;DHT22;11167;46.988;15.470;2023-07-13T04:17:02;23.80;70.50
22006;DHT22;11167;46.988;15.470;2023-07-13T04:19:03;23.80;70.20
22006;DHT22;11167;46.988;15.470;2023-07-13T04:21:04;23.80;70.30
22006;DHT22;11167;46.988;15.470;2023-07-13T04:23:05;23.80;70.20
22006;DHT22;11167;46.988;15.470;2023-07-13T04:25:07;23.80;70.20
22006;DHT22;11167;46.988;15.470;2023-07-13T04:27:08;23.80;70.30
22006;DHT22;11167;46.988;15.470;2023-07-13T04:29:09;23.80;70.30
22006;DHT22;11167;46.988;15.470;2023-07-13T04:31:10;23.80;70.30
22006;DHT22;11167;46.988;15.470;2023-07-13T04:33:11;23.80;70.30
22006;DHT22;11167;46.988;15.470;2023-07-13T04:35:14;23.80;70.30
22006;DHT22;11167;46.988;15.470;2023-07-13T04:37:15;23.70;70.30
22006;DHT22;11167;46.988;15.470;2023-07-13T04:39:16;23.70;70.50
22006;DHT22;11167;46.988;15.470;2023-07-13T04:41:17;23.70;70.30
22006;DHT22;11167;46.988;15.470;2023-07-13T04:43:18;23.70;70.40
22006;DHT22;11167;46.988;15.470;2023-07-13T04:45:19;23.70;70.40
22006;DHT22;11167;46.988;15.470;2023-07-13T04:47:21;23.70;70.50
22006;DHT22;11167;46.988;15.470;2023-07-13T04:49:23;23.70;70.50
22006;DHT22;11167;46.988;15.470;2023-07-13T04:51:24;23.70;70.50
22006;DHT22;11167;46.988;15.470;2023-07-13T04:53:27;23.70;70.50
22006;DHT22;11167;46.988;15.470;2023-07-13T04:55:29;23.60;70.50
22006;DHT22;11167;46.988;15.470;2023-07-13T04:57:31;23.60;70.50
22006;DHT22;11167;46.988;15.470;2023-07-13T04:59:34;23.60;70.50
22006;DHT22;11167;46.988;15.470;2023-07-13T05:01:35;23.60;70.50
22006;DHT22;11167;46.988;15.470;2023-07-13T05:03:36;23.60;70.50
22006;DHT22;11167;46.988;15.470;2023-07-13T05:05:38;23.50;70.50
22006;DHT22;11167;46.988;15.470;2023-07-13T05:07:39;23.60;70.60
22006;DHT22;11167;46.988;15.470;2023-07-13T05:09:40;23.50;70.70
22006;DHT22;11167;46.988;15.470;2023-07-13T05:11:41;23.50;70.60
22006;DHT22;11167;46.988;15.470;2023-07-13T05:13:42;23.50;70.60
22006;DHT22;11167;46.988;15.470;2023-07-13T05:15:43;23.50;70.60
22006;DHT22;11167;46.988;15.470;2023-07-13T05:17:44;23.50;70.70
22006;DHT22;11167;46.988;15.470;2023-07-13T05:19:45;23.50;70.70
22006;DHT22;11167;46.988;15.470;2023-07-13T05:21:46;23.50;70.70
22006;DHT22;11167;46.988;15.470;2023-07-13T05:23:47;23.50;70.70
22006;DHT22;11167;46.988;15.470;2023-07-13T05:25:48;23.40;70.60
22006;DHT22;11167;46.988;15.470;2023-07-13T05:27:49;23.40;70.60
22006;DHT22;11167;46.988;15.470;2023-07-13T05:29:50;23.40;70.70
22006;DHT22;11167;46.988;15.470;2023-07-13T05:31:51;23.40;70.70
22006;DHT22;11167;46.988;15.470;2023-07-13T05:33:52;23.40;70.70
22006;DHT22;11167;46.988;15.470;2023-07-13T05:36:13;23.40;70.70
22006;DHT22;11167;46.988;15.470;2023-07-13T05:38:14;23.40;70.60
22006;DHT22;11167;46.988;15.470;2023-07-13T05:40:15;23.40;70.80
22006;DHT22;11167;46.988;15.470;2023-07-13T05:42:16;23.40;70.70
22006;DHT22;11167;46.988;15.470;2023-07-13T05:44:17;23.40;70.70
22006;DHT22;11167;46.988;15.470;2023-07-13T05:46:19;23.30;70.70
22006;DHT22;11167;46.988;15.470;2023-07-13T05:48:20;23.30;70.70
22006;DHT22;11167;46.988;15.470;2023-07-13T05:50:22;23.30;70.70
22006;DHT22;11167;46.988;15.470;2023-07-13T05:52:23;23.30;70.70
22006;DHT22;11167;46.988;15.470;2023-07-13T05:54:24;23.30;70.70
22006;DHT22;11167;46.988;15.470;2023-07-13T05:56:25;23.30;70.70
22006;DHT22;11167;46.988;15.470;2023-07-13T05:58:27;23.30;70.80
22006;DHT22;11167;46.988;15.470;2023-07-13T06:00:28;23.30;70.80
22006;DHT22;11167;46.988;15.470;2023-07-13T06:02:29;23.30;70.80
22006;DHT22;11167;46.988;15.470;2023-07-13T06:04:33;23.30;70.90
22006;DHT22;11167;46.988;15.470;2023-07-13T06:06:34;23.30;70.90
22006;DHT22;11167;46.988;15.470;2023-07-13T06:08:36;23.20;70.80
22006;DHT22;11167;46.988;15.470;2023-07-13T06:10:37;23.20;70.80
22006;DHT22;11167;46.988;15.470;2023-07-13T06:12:38;23.20;71.40
22006;DHT22;11167;46.988;15.470;2023-07-13T06:14:39;23.20;70.80
22006;DHT22;11167;46.988;15.470;2023-07-13T06:16:40;23.20;70.80
22006;DHT22;11167;46.988;15.470;2023-07-13T06:18:42;23.20;70.90
22006;DHT22;11167;46.988;15.470;2023-07-13T06:20:44;23.20;70.80
22006;DHT22;11167;46.988;15.470;2023-07-13T06:22:45;23.20;70.90
22006;DHT22;11167;46.988;15.470;2023-07-13T06:24:47;23.20;70.90
22006;DHT22;11167;46.988;15.470;2023-07-13T06:26:48;23.20;70.90
22006;DHT22;11167;46.988;15.470;2023-07-13T06:28:49;23.20;70.90
22006;DHT22;11167;46.988;15.470;2023-07-13T06:30:50;23.20;70.90
22006;DHT22;11167;46.988;15.470;2023-07-13T06:32:51;23.10;70.80
22006;DHT22;11167;46.988;15.470;2023-07-13T06:34:52;23.20;71.00
22006;DHT22;11167;46.988;15.470;2023-07-13T06:36:53;23.10;70.90
22006;DHT22;11167;46.988;15.470;2023-07-13T06:38:54;23.10;71.00
22006;DHT22;11167;46.988;15.470;2023-07-13T06:40:55;23.10;70.90
22006;DHT22;11167;46.988;15.470;2023-07-13T06:42:56;23.10;70.90
22006;DHT22;11167;46.988;15.470;2023-07-13T06:44:57;23.10;70.90
22006;DHT22;11167;46.988;15.470;2023-07-13T06:46:58;23.10;71.00
22006;DHT22;11167;46.988;15.470;2023-07-13T06:48:59;23.10;70.90
22006;DHT22;11167;46.988;15.470;2023-07-13T06:51:02;23.10;71.00
22006;DHT22;11167;46.988;15.470;2023-07-13T06:53:03;23.10;71.70
22006;DHT22;11167;46.988;15.470;2023-07-13T06:55:04;23.10;71.00
22006;DHT22;11167;46.988;15.470;2023-07-13T06:57:06;23.10;71.00
22006;DHT22;11167;46.988;15.470;2023-07-13T06:59:08;23.10;71.00
22006;DHT22;11167;46.988;15.470;2023-07-13T07:01:09;23.10;71.00
22006;DHT22;11167;46.988;15.470;2023-07-13T07:03:10;23.10;71.10
22006;DHT22;11167;46.988;15.470;2023-07-13T07:05:11;23.10;71.00
22006;DHT22;11167;46.988;15.470;2023-07-13T07:07:12;23.10;71.00
22006;DHT22;11167;46.988;15.470;2023-07-13T07:09:13;23.00;70.90
22006;DHT22;11167;46.988;15.470;2023-07-13T07:11:25;23.10;71.00
22006;DHT22;11167;46.988;15.470;2023-07-13T07:13:26;23.00;70.90
22006;DHT22;11167;46.988;15.470;2023-07-13T07:15:29;23.00;71.00
22006;DHT22;11167;46.988;15.470;2023-07-13T07:17:30;23.00;71.00
22006;DHT22;11167;46.988;15.470;2023-07-13T07:19:32;23.00;71.00
22006;DHT22;11167;46.988;15.470;2023-07-13T07:21:33;23.00;71.00
22006;DHT22;11167;46.988;15.470;2023-07-13T07:23:34;23.00;71.00
22006;DHT22;11167;46.988;15.470;2023-07-13T07:25:35;23.00;71.00
22006;DHT22;11167;46.988;15.470;2023-07-13T07:27:38;23.00;71.00
22006;DHT22;11167;46.988;15.470;2023-07-13T07:29:39;23.00;71.00
22006;DHT22;11167;46.988;15.470;2023-07-13T07:31:40;23.00;71.00
22006;DHT22;11167;46.988;15.470;2023-07-13T07:33:41;23.00;71.00
22006;DHT22;11167;46.988;15.470;2023-07-13T07:35:43;23.00;71.20
22006;DHT22;11167;46.988;15.470;2023-07-13T07:37:43;23.00;71.00
22006;DHT22;11167;46.988;15.470;2023-07-13T07:39:44;23.00;71.00
22006;DHT22;11167;46.988;15.470;2023-07-13T07:41:45;23.00;71.10
22006;DHT22;11167;46.988;15.470;2023-07-13T07:43:46;23.00;71.90
22006;DHT22;11167;46.988;15.470;2023-07-13T07:45:47;23.00;71.10
22006;DHT22;11167;46.988;15.470;2023-07-13T07:47:48;23.00;71.10
22006;DHT22;11167;46.988;15.470;2023-07-13T07:49:49;23.00;71.20
22006;DHT22;11167;46.988;15.470;2023-07-13T07:51:51;23.00;71.10
22006;DHT22;11167;46.988;15.470;2023-07-13T07:53:53;23.00;71.20
22006;DHT22;11167;46.988;15.470;2023-07-13T07:55:55;23.00;71.20
22006;DHT22;11167;46.988;15.470;2023-07-13T07:57:56;23.00;71.20
22006;DHT22;11167;46.988;15.470;2023-07-13T07:59:57;23.00;71.20
22006;DHT22;11167;46.988;15.470;2023-07-13T08:01:58;23.00;71.10
22006;DHT22;11167;46.988;15.470;2023-07-13T08:03:59;23.00;71.20
22006;DHT22;11167;46.988;15.470;2023-07-13T08:06:01;23.00;71.20
22006;DHT22;11167;46.988;15.470;2023-07-13T08:08:02;23.00;71.20
22006;DHT22;11167;46.988;15.470;2023-07-13T08:10:07;23.00;71.20
22006;DHT22;11167;46.988;15.470;2023-07-13T08:12:09;23.00;71.20
22006;DHT22;11167;46.988;15.470;2023-07-13T08:14:10;23.00;71.20
22006;DHT22;11167;46.988;15.470;2023-07-13T08:16:11;23.00;71.90
22006;DHT22;11167;46.988;15.470;2023-07-13T08:18:12;23.00;71.20
22006;DHT22;11167;46.988;15.470;2023-07-13T08:20:13;23.00;71.20
22006;DHT22;11167;46.988;15.470;2023-07-13T08:22:15;23.10;71.40
22006;DHT22;11167;46.988;15.470;2023-07-13T08:24:16;23.00;71.30
22006;DHT22;11167;46.988;15.470;2023-07-13T08:26:19;23.10;71.40
22006;DHT22;11167;46.988;15.470;2023-07-13T08:28:21;23.10;71.40
22006;DHT22;11167;46.988;15.470;2023-07-13T08:30:22;23.10;71.40
22006;DHT22;11167;46.988;15.470;2023-07-13T08:32:24;23.10;71.40
22006;DHT22;11167;46.988;15.470;2023-07-13T08:34:26;23.10;71.50
22006;DHT22;11167;46.988;15.470;2023-07-13T08:36:28;23.10;71.50
22006;DHT22;11167;46.988;15.470;2023-07-13T08:38:29;23.10;71.50
22006;DHT22;11167;46.988;15.470;2023-07-13T08:40:31;23.10;71.50
22006;DHT22;11167;46.988;15.470;2023-07-13T08:42:38;23.10;71.60
22006;DHT22;11167;46.988;15.470;2023-07-13T08:44:51;23.10;71.60
22006;DHT22;11167;46.988;15.470;2023-07-13T08:46:52;23.10;71.60
22006;DHT22;11167;46.988;15.470;2023-07-13T08:48:57;23.10;71.60
22006;DHT22;11167;46.988;15.470;2023-07-13T08:53:39;23.10;71.70
22006;DHT22;11167;46.988;15.470;2023-07-13T08:55:41;23.20;71.70
22006;DHT22;11167;46.988;15.470;2023-07-13T08:57:45;23.10;71.70
22006;DHT22;11167;46.988;15.470;2023-07-13T08:59:49;23.20;71.80
22006;DHT22;11167;46.988;15.470;2023-07-13T09:02:09;23.20;71.80
22006;DHT22;11167;46.988;15.470;2023-07-13T09:04:21;23.20;71.80
22006;DHT22;11167;46.988;15.470;2023-07-13T09:06:22;23.20;71.70
22006;DHT22;11167;46.988;15.470;2023-07-13T09:10:45;23.30;71.80
22006;DHT22;11167;46.988;15.470;2023-07-13T09:13:07;23.30;71.80
22006;DHT22;11167;46.988;15.470;2023-07-13T09:15:16;23.30;71.90
22006;DHT22;11167;46.988;15.470;2023-07-13T09:17:14;23.30;71.80
22006;DHT22;11167;46.988;15.470;2023-07-13T09:19:20;23.30;71.80
22006;DHT22;11167;46.988;15.470;2023-07-13T09:21:41;23.30;71.80
22006;DHT22;11167;46.988;15.470;2023-07-13T09:23:43;23.40;72.00
22006;DHT22;11167;46.988;15.470;2023-07-13T09:25:47;23.40;72.00
22006;DHT22;11167;46.988;15.470;2023-07-13T09:27:48;23.40;72.00
22006;DHT22;11167;46.988;15.470;2023-07-13T09:32:18;23.40;72.10
22006;DHT22;11167;46.988;15.470;2023-07-13T09:34:20;23.40;72.10
22006;DHT22;11167;46.988;15.470;2023-07-13T09:36:33;23.50;72.30
22006;DHT22;11167;46.988;15.470;2023-07-13T09:38:36;23.50;72.20
22006;DHT22;11167;46.988;15.470;2023-07-13T09:43:03;23.50;72.20
22006;DHT22;11167;46.988;15.470;2023-07-13T09:45:06;23.60;72.30
22006;DHT22;11167;46.988;15.470;2023-07-13T09:47:22;23.60;72.40
22006;DHT22;11167;46.988;15.470;2023-07-13T09:49:33;23.60;72.40
22006;DHT22;11167;46.988;15.470;2023-07-13T09:51:33;23.70;72.40
22006;DHT22;11167;46.988;15.470;2023-07-13T09:53:34;23.60;72.40
22006;DHT22;11167;46.988;15.470;2023-07-13T09:55:37;23.70;72.40
22006;DHT22;11167;46.988;15.470;2023-07-13T09:57:42;23.70;72.40
22006;DHT22;11167;46.988;15.470;2023-07-13T09:59:50;23.70;72.60
22006;DHT22;11167;46.988;15.470;2023-07-13T10:01:52;23.70;72.50
22006;DHT22;11167;46.988;15.470;2023-07-13T10:03:54;23.80;72.60
22006;DHT22;11167;46.988;15.470;2023-07-13T10:06:00;23.80;72.60
22006;DHT22;11167;46.988;15.470;2023-07-13T10:08:00;23.80;72.60
22006;DHT22;11167;46.988;15.470;2023-07-13T10:10:02;23.80;72.60
22006;DHT22;11167;46.988;15.470;2023-07-13T10:12:05;23.90;72.60
22006;DHT22;11167;46.988;15.470;2023-07-13T10:14:11;23.90;72.60
22006;DHT22;11167;46.988;15.470;2023-07-13T10:16:13;23.90;73.50
22006;DHT22;11167;46.988;15.470;2023-07-13T10:18:15;23.90;72.70
22006;DHT22;11167;46.988;15.470;2023-07-13T10:20:17;23.90;72.70
22006;DHT22;11167;46.988;15.470;2023-07-13T10:22:25;24.00;72.80
22006;DHT22;11167;46.988;15.470;2023-07-13T10:24:27;24.00;72.80
22006;DHT22;11167;46.988;15.470;2023-07-13T10:26:32;24.00;72.80
22006;DHT22;11167;46.988;15.470;2023-07-13T10:28:37;24.00;72.80
22006;DHT22;11167;46.988;15.470;2023-07-13T10:30:40;24.10;72.80
22006;DHT22;11167;46.988;15.470;2023-07-13T10:32:44;24.10;72.80
22006;DHT22;11167;46.988;15.470;2023-07-13T10:34:46;24.10;72.80
22006;DHT22;11167;46.988;15.470;2023-07-13T10:36:49;24.20;73.60
22006;DHT22;11167;46.988;15.470;2023-07-13T10:38:51;24.20;72.90
22006;DHT22;11167;46.988;15.470;2023-07-13T10:40:58;24.20;72.80
22006;DHT22;11167;46.988;15.470;2023-07-13T10:43:03;24.20;72.80
22006;DHT22;11167;46.988;15.470;2023-07-13T10:45:18;24.30;72.80
22006;DHT22;11167;46.988;15.470;2023-07-13T10:47:17;24.30;72.80
22006;DHT22;11167;46.988;15.470;2023-07-13T10:49:20;24.30;72.90
22006;DHT22;11167;46.988;15.470;2023-07-13T10:51:22;24.40;72.90
22006;DHT22;11167;46.988;15.470;2023-07-13T10:53:31;24.40;72.90
22006;DHT22;11167;46.988;15.470;2023-07-13T10:57:53;24.40;72.90
22006;DHT22;11167;46.988;15.470;2023-07-13T11:02:13;24.50;73.00
22006;DHT22;11167;46.988;15.470;2023-07-13T11:04:14;24.50;73.00
22006;DHT22;11167;46.988;15.470;2023-07-13T11:06:28;24.50;73.00
22006;DHT22;11167;46.988;15.470;2023-07-13T11:10:48;24.60;73.10
22006;DHT22;11167;46.988;15.470;2023-07-13T11:12:52;24.60;73.80
22006;DHT22;11167;46.988;15.470;2023-07-13T11:17:24;24.60;73.20
22006;DHT22;11167;46.988;15.470;2023-07-13T11:21:22;24.70;73.30
22006;DHT22;11167;46.988;15.470;2023-07-13T11:23:30;24.80;73.30
22006;DHT22;11167;46.988;15.470;2023-07-13T11:25:33;24.80;73.30
22006;DHT22;11167;46.988;15.470;2023-07-13T11:27:38;24.80;73.30
22006;DHT22;11167;46.988;15.470;2023-07-13T11:29:40;24.80;73.30
22006;DHT22;11167;46.988;15.470;2023-07-13T11:31:42;24.80;73.30
22006;DHT22;11167;46.988;15.470;2023-07-13T11:33:53;24.90;73.30
22006;DHT22;11167;46.988;15.470;2023-07-13T11:36:00;24.90;73.30
22006;DHT22;11167;46.988;15.470;2023-07-13T11:38:19;24.90;73.30
22006;DHT22;11167;46.988;15.470;2023-07-13T11:40:17;25.00;73.30
22006;DHT22;11167;46.988;15.470;2023-07-13T11:42:19;25.00;72.60
22006;DHT22;11167;46.988;15.470;2023-07-13T11:44:23;25.00;73.30
22006;DHT22;11167;46.988;15.470;2023-07-13T11:46:28;25.00;73.30
22006;DHT22;11167;46.988;15.470;2023-07-13T11:48:29;25.10;73.50
22006;DHT22;11167;46.988;15.470;2023-07-13T11:50:32;25.10;73.40
22006;DHT22;11167;46.988;15.470;2023-07-13T11:52:36;25.10;73.40
22006;DHT22;11167;46.988;15.470;2023-07-13T11:54:50;25.20;73.50
22006;DHT22;11167;46.988;15.470;2023-07-13T11:57:23;25.20;73.50
22006;DHT22;11167;46.988;15.470;2023-07-13T11:59:07;25.20;73.60
22006;DHT22;11167;46.988;15.470;2023-07-13T12:01:17;25.20;73.50
22006;DHT22;11167;46.988;15.470;2023-07-13T12:03:20;25.20;73.50
22006;DHT22;11167;46.988;15.470;2023-07-13T12:05:24;25.30;73.70
22006;DHT22;11167;46.988;15.470;2023-07-13T12:07:28;25.30;73.60
22006;DHT22;11167;46.988;15.470;2023-07-13T12:09:30;25.30;73.70
22006;DHT22;11167;46.988;15.470;2023-07-13T12:11:35;25.40;73.80
22006;DHT22;11167;46.988;15.470;2023-07-13T12:13:38;25.40;73.80
22006;DHT22;11167;46.988;15.470;2023-07-13T12:15:45;25.40;73.70
22006;DHT22;11167;46.988;15.470;2023-07-13T12:17:45;25.50;73.80
22006;DHT22;11167;46.988;15.470;2023-07-13T12:19:51;25.50;73.80
22006;DHT22;11167;46.988;15.470;2023-07-13T12:21:57;25.50;73.90
22006;DHT22;11167;46.988;15.470;2023-07-13T12:23:59;25.50;73.90
22006;DHT22;11167;46.988;15.470;2023-07-13T12:26:04;25.50;73.90
22006;DHT22;11167;46.988;15.470;2023-07-13T12:30:32;25.60;73.90
22006;DHT22;11167;46.988;15.470;2023-07-13T12:32:35;25.60;73.90
22006;DHT22;11167;46.988;15.470;2023-07-13T12:34:50;25.70;74.00
22006;DHT22;11167;46.988;15.470;2023-07-13T12:36:52;25.70;74.00
22006;DHT22;11167;46.988;15.470;2023-07-13T12:38:53;25.70;74.00
22006;DHT22;11167;46.988;15.470;2023-07-13T12:40:54;25.70;74.00
22006;DHT22;11167;46.988;15.470;2023-07-13T12:42:56;25.70;74.00
22006;DHT22;11167;46.988;15.470;2023-07-13T12:47:24;25.80;74.00
22006;DHT22;11167;46.988;15.470;2023-07-13T12:49:29;25.80;74.00
22006;DHT22;11167;46.988;15.470;2023-07-13T12:51:30;25.80;74.20
22006;DHT22;11167;46.988;15.470;2023-07-13T12:53:32;25.80;74.10
22006;DHT22;11167;46.988;15.470;2023-07-13T12:55:42;25.80;74.00
22006;DHT22;11167;46.988;15.470;2023-07-13T12:57:56;25.90;74.00
22006;DHT22;11167;46.988;15.470;2023-07-13T12:59:57;25.90;74.20
22006;DHT22;11167;46.988;15.470;2023-07-13T13:01:59;25.90;74.10
22006;DHT22;11167;46.988;15.470;2023-07-13T13:04:02;25.90;74.00
22006;DHT22;11167;46.988;15.470;2023-07-13T13:08:22;25.90;74.00
22006;DHT22;11167;46.988;15.470;2023-07-13T13:10:23;25.90;74.00
22006;DHT22;11167;46.988;15.470;2023-07-13T13:12:25;25.90;74.90